Time;durP1;ratioP1;P1;durP2;ratioP2;P2;SDS_P1;SDS_P2;PMS_P1;PMS_P2;Temp;Humidity;BMP_temperature;BMP_pressure;BME280_temperature;BME280_humidity;BME280_pressure;Samples;Min_cycle;Max_cycle;Signal;HPM_P1;HPM_P2
2023/10/09 00:01:27;;;;;;;2.33;1.60;;;10.40;99.90;;;;;;5104862;28;20281;-82
2023/10/09 00:04:01;;;;;;;4.43;2.20;;;10.40;99.90;;;;;;5090772;28;20276;-83
2023/10/09 00:06:37;;;;;;;6.23;1.93;;;10.40;99.90;;;;;;5088690;28;20232;-83
2023/10/09 00:11:47;;;;;;;4.20;1.90;;;10.40;99.90;;;;;;5103280;28;20229;-84
2023/10/09 00:14:15;;;;;;;3.17;1.93;;;10.30;99.90;;;;;;5089163;28;20211;-84
2023/10/09 00:16:47;;;;;;;4.70;1.80;;;10.30;99.90;;;;;;5092337;28;20246;-83
2023/10/09 00:19:17;;;;;;;4.83;2.07;;;10.30;99.90;;;;;;5092021;28;20587;-82
2023/10/09 00:21:44;;;;;;;4.53;1.43;;;10.30;99.90;;;;;;5089397;28;20313;-82
2023/10/09 00:24:14;;;;;;;3.40;1.80;;;10.30;99.90;;;;;;5091134;28;20348;-82
2023/10/09 00:26:45;;;;;;;3.50;2.27;;;10.30;99.90;;;;;;5091824;28;20221;-82
2023/10/09 00:29:21;;;;;;;5.03;2.23;;;10.30;99.90;;;;;;5094491;28;20313;-82
2023/10/09 00:32:05;;;;;;;6.93;2.23;;;10.30;99.90;;;;;;5103464;28;20580;-82
2023/10/09 00:34:39;;;;;;;6.83;3.67;;;10.30;99.90;;;;;;5099562;28;20842;-83
2023/10/09 00:37:10;;;;;;;4.40;2.70;;;10.30;99.90;;;;;;5086745;28;20370;-84
2023/10/09 00:39:43;;;;;;;5.73;2.67;;;10.20;99.90;;;;;;5084286;28;20226;-83
2023/10/09 00:42:12;;;;;;;2.93;2.10;;;10.30;99.90;;;;;;5101358;28;20696;-84
2023/10/09 00:44:41;;;;;;;5.70;1.87;;;10.20;99.90;;;;;;5100320;28;20584;-84
2023/10/09 00:47:21;;;;;;;4.60;1.90;;;10.20;99.90;;;;;;5087711;28;20226;-84
2023/10/09 00:49:59;;;;;;;3.10;1.90;;;10.20;99.90;;;;;;5093202;28;20230;-84
2023/10/09 00:52:33;;;;;;;3.50;1.60;;;10.20;99.90;;;;;;5086892;28;20222;-84
2023/10/09 00:55:04;;;;;;;4.23;1.83;;;10.20;99.90;;;;;;5103025;28;20244;-83
2023/10/09 00:57:37;;;;;;;4.57;2.10;;;10.20;99.90;;;;;;5090525;28;20251;-83
2023/10/09 01:00:23;;;;;;;8.37;2.40;;;10.20;99.90;;;;;;5088510;28;20254;-82
2023/10/09 01:03:10;;;;;;;6.73;1.70;;;10.20;99.90;;;;;;5103945;28;20230;-82
2023/10/09 01:05:37;;;;;;;4.03;1.70;;;10.10;99.90;;;;;;5104885;28;20292;-82
2023/10/09 01:08:16;;;;;;;6.93;2.30;;;10.10;99.90;;;;;;5091476;28;20226;-81
2023/10/09 01:10:52;;;;;;;4.87;2.10;;;10.10;99.90;;;;;;5106503;27;20221;-82
2023/10/09 01:13:19;;;;;;;6.83;1.70;;;10.10;99.90;;;;;;5087051;28;20358;-81
2023/10/09 01:15:48;;;;;;;4.47;1.93;;;10.10;99.90;;;;;;5092140;28;20226;-83
2023/10/09 01:18:16;;;;;;;3.57;1.90;;;10.00;99.90;;;;;;5092643;28;20222;-83
2023/10/09 01:20:46;;;;;;;5.50;2.07;;;10.00;99.90;;;;;;5103801;28;20219;-83
2023/10/09 01:23:15;;;;;;;3.77;2.00;;;10.00;99.90;;;;;;5106556;28;20217;-82
2023/10/09 01:25:49;;;;;;;4.13;1.67;;;9.90;99.90;;;;;;5093220;28;20237;-82
2023/10/09 01:28:16;;;;;;;3.50;1.50;;;9.90;99.90;;;;;;5090722;28;20242;-83
2023/10/09 01:30:44;;;;;;;5.90;1.80;;;9.90;99.90;;;;;;5098084;28;20578;-83
2023/10/09 01:33:26;;;;;;;3.70;1.50;;;9.90;99.90;;;;;;5098068;28;20228;-85
2023/10/09 01:35:58;;;;;;;5.47;1.70;;;9.80;99.90;;;;;;5094213;28;20283;-84
2023/10/09 01:38:32;;;;;;;3.93;1.70;;;9.80;99.90;;;;;;5109821;27;20237;-84
2023/10/09 01:41:06;;;;;;;3.70;1.83;;;9.80;99.90;;;;;;5108698;28;20308;-84
2023/10/09 01:43:35;;;;;;;4.67;2.10;;;9.80;99.90;;;;;;5095529;28;20269;-84
2023/10/09 01:46:04;;;;;;;4.33;1.77;;;9.80;99.90;;;;;;5089310;28;20260;-84
2023/10/09 01:48:35;;;;;;;3.40;1.73;;;9.80;99.90;;;;;;5094131;28;20221;-84
2023/10/09 01:51:04;;;;;;;4.73;2.10;;;9.80;99.90;;;;;;5093387;28;20222;-85
2023/10/09 01:53:33;;;;;;;6.57;1.70;;;9.70;99.90;;;;;;5091139;28;20217;-85
2023/10/09 01:56:14;;;;;;;2.73;1.60;;;9.70;99.90;;;;;;5093429;28;20693;-84
2023/10/09 01:58:42;;;;;;;2.87;1.80;;;9.70;99.90;;;;;;5104888;28;20239;-84
2023/10/09 02:01:10;;;;;;;3.27;1.67;;;9.70;99.90;;;;;;5091628;28;20242;-82
2023/10/09 02:03:38;;;;;;;4.03;1.60;;;9.70;99.90;;;;;;5109556;28;20233;-83
2023/10/09 02:06:24;;;;;;;4.80;1.97;;;9.70;99.90;;;;;;5098900;28;20289;-83
2023/10/09 02:08:53;;;;;;;3.63;1.97;;;9.70;99.90;;;;;;5089298;28;20238;-84
2023/10/09 02:11:24;;;;;;;2.50;1.60;;;9.70;99.90;;;;;;5091116;28;20245;-84
2023/10/09 02:13:57;;;;;;;4.57;1.87;;;9.70;99.90;;;;;;5088015;28;20910;-84
2023/10/09 02:16:29;;;;;;;4.60;2.20;;;9.60;99.90;;;;;;5086447;28;20757;-84
2023/10/09 02:18:58;;;;;;;6.43;1.83;;;9.60;99.90;;;;;;5086100;28;21066;-84
2023/10/09 02:21:33;;;;;;;4.77;1.90;;;9.60;99.90;;;;;;5085011;28;20248;-84
2023/10/09 02:24:07;;;;;;;3.40;1.80;;;9.60;99.90;;;;;;5089639;28;20778;-84
2023/10/09 02:27:06;;;;;;;5.27;1.70;;;9.60;99.90;;;;;;5098740;28;20226;-84
2023/10/09 02:29:35;;;;;;;3.17;1.73;;;9.60;99.90;;;;;;5087799;28;20327;-83
2023/10/09 02:32:13;;;;;;;4.73;2.00;;;9.60;99.90;;;;;;5088166;28;20262;-83
2023/10/09 02:34:40;;;;;;;2.07;1.77;;;9.60;99.90;;;;;;5087181;28;20222;-82
2023/10/09 02:37:11;;;;;;;5.07;1.77;;;9.60;99.90;;;;;;5087510;28;20253;-83
2023/10/09 02:39:43;;;;;;;4.23;1.77;;;9.60;99.90;;;;;;5091816;28;20240;-84
2023/10/09 02:42:23;;;;;;;4.60;2.00;;;9.60;99.90;;;;;;5092711;28;20229;-83
2023/10/09 02:44:52;;;;;;;4.40;2.17;;;9.60;99.90;;;;;;5090623;28;20210;-84
2023/10/09 02:47:24;;;;;;;3.93;1.90;;;9.70;99.90;;;;;;5088337;28;20267;-83
2023/10/09 02:49:52;;;;;;;3.50;1.90;;;9.60;99.90;;;;;;5089643;28;20286;-84
2023/10/09 02:52:24;;;;;;;4.13;1.57;;;9.60;99.90;;;;;;5090667;28;20232;-85
2023/10/09 02:54:59;;;;;;;5.00;1.77;;;9.60;99.90;;;;;;5101724;28;20229;-84
2023/10/09 02:57:36;;;;;;;4.93;2.00;;;9.60;99.90;;;;;;5090243;27;20316;-85
2023/10/09 03:00:08;;;;;;;1.93;1.50;;;9.60;99.90;;;;;;5090161;28;20262;-84
2023/10/09 03:02:39;;;;;;;2.50;1.60;;;9.70;99.90;;;;;;5088091;28;20221;-84
2023/10/09 03:05:11;;;;;;;3.43;2.10;;;9.60;99.90;;;;;;5107952;27;20234;-84
2023/10/09 03:07:39;;;;;;;3.13;1.90;;;9.60;99.90;;;;;;5089061;28;20283;-84
2023/10/09 03:10:10;;;;;;;3.60;1.83;;;9.60;99.90;;;;;;5087181;28;20232;-85
2023/10/09 03:12:39;;;;;;;2.90;1.70;;;9.60;99.90;;;;;;5091993;28;20220;-84
2023/10/09 03:15:11;;;;;;;4.07;1.90;;;9.60;99.90;;;;;;5097443;28;20244;-84
2023/10/09 03:17:38;;;;;;;5.03;2.03;;;9.60;99.90;;;;;;5103287;28;20229;-83
2023/10/09 03:20:12;;;;;;;3.93;1.90;;;9.60;99.90;;;;;;5089444;28;20511;-84
2023/10/09 03:22:39;;;;;;;4.27;2.13;;;9.60;99.90;;;;;;5096002;28;20636;-85
2023/10/09 03:25:11;;;;;;;2.47;1.70;;;9.60;99.90;;;;;;5093076;28;20278;-84
2023/10/09 03:27:41;;;;;;;4.27;1.70;;;9.60;99.90;;;;;;5090830;28;20226;-84
2023/10/09 03:30:16;;;;;;;6.20;2.10;;;9.60;99.90;;;;;;5080067;28;20614;-83
2023/10/09 03:32:50;;;;;;;3.43;1.57;;;9.50;99.90;;;;;;5091959;28;20269;-82
2023/10/09 03:35:24;;;;;;;3.37;1.73;;;9.50;99.90;;;;;;5105588;28;20277;-84
2023/10/09 03:37:56;;;;;;;3.80;1.67;;;9.50;99.90;;;;;;5092264;28;20699;-82
2023/10/09 03:40:27;;;;;;;4.77;1.87;;;9.50;99.90;;;;;;5090932;28;20297;-82
2023/10/09 03:42:53;;;;;;;1.90;1.50;;;9.50;99.90;;;;;;5089341;28;20744;-83
2023/10/09 03:45:26;;;;;;;5.20;1.90;;;9.50;99.90;;;;;;5091436;28;20239;-84
2023/10/09 03:48:01;;;;;;;3.77;1.50;;;9.50;99.90;;;;;;5092719;28;20257;-83
2023/10/09 03:50:35;;;;;;;2.57;1.50;;;9.50;99.90;;;;;;5088567;28;20775;-83
2023/10/09 03:53:06;;;;;;;4.60;1.70;;;9.50;99.90;;;;;;5089859;28;20230;-83
2023/10/09 03:55:35;;;;;;;5.30;2.07;;;9.50;99.90;;;;;;5090069;28;20479;-83
2023/10/09 03:58:02;;;;;;;4.73;2.13;;;9.50;99.90;;;;;;5089360;28;20881;-83
2023/10/09 04:00:30;;;;;;;5.27;1.60;;;9.50;99.90;;;;;;5086806;28;20702;-83
2023/10/09 04:02:57;;;;;;;3.30;1.60;;;9.50;99.90;;;;;;5092147;28;20213;-83
2023/10/09 04:05:25;;;;;;;4.03;1.47;;;9.40;99.90;;;;;;5106169;28;20235;-83
2023/10/09 04:07:53;;;;;;;4.10;1.90;;;9.50;99.90;;;;;;5087275;28;20608;-83
2023/10/09 04:13:10;;;;;;;3.07;1.70;;;9.40;99.90;;;;;;5084258;28;20214;-83
2023/10/09 04:15:37;;;;;;;4.27;1.50;;;9.50;99.90;;;;;;5088908;28;20225;-83
2023/10/09 04:18:06;;;;;;;3.47;1.70;;;9.50;99.90;;;;;;5083899;28;20449;-82
2023/10/09 04:23:16;;;;;;;5.50;1.80;;;9.40;99.90;;;;;;5089327;28;20220;-83
2023/10/09 04:25:42;;;;;;;3.60;1.80;;;9.40;99.90;;;;;;5093140;28;20716;-82
2023/10/09 04:28:18;;;;;;;4.03;1.80;;;9.40;99.90;;;;;;5091928;28;20244;-83
2023/10/09 04:30:53;;;;;;;4.57;1.70;;;9.50;99.90;;;;;;5105314;28;20659;-82
2023/10/09 04:33:34;;;;;;;4.80;1.77;;;9.50;99.90;;;;;;5086318;28;20266;-81
2023/10/09 04:36:22;;;;;;;3.60;1.97;;;9.40;99.90;;;;;;5095287;28;20399;-80
2023/10/09 04:42:18;;;;;;;3.03;1.50;;;9.50;99.90;;;;;;5054464;27;20575;-81
2023/10/09 04:44:59;;;;;;;4.23;1.63;;;9.50;99.90;;;;;;5023382;28;20222;-80
2023/10/09 04:47:35;;;;;;;4.73;1.63;;;9.50;99.90;;;;;;5027766;28;20232;-81
2023/10/09 04:50:05;;;;;;;4.80;1.63;;;9.50;99.90;;;;;;5015401;28;20227;-82
2023/10/09 04:55:18;;;;;;;3.93;1.50;;;9.40;99.90;;;;;;5030647;28;20296;-81
2023/10/09 04:58:00;;;;;;;2.37;1.50;;;9.40;99.90;;;;;;5043233;28;20234;-82
2023/10/09 05:00:46;;;;;;;4.63;1.60;;;9.40;99.90;;;;;;5030486;28;20232;-80
2023/10/09 05:03:25;;;;;;;3.83;1.60;;;9.40;99.90;;;;;;5052209;28;20207;-81
2023/10/09 05:05:59;;;;;;;3.70;1.47;;;9.40;99.90;;;;;;5042718;28;20223;-79
2023/10/09 05:08:29;;;;;;;3.10;1.43;;;9.40;99.90;;;;;;5039612;28;20311;-78
2023/10/09 05:11:15;;;;;;;5.93;1.90;;;9.40;99.90;;;;;;5021222;28;20223;-80
2023/10/09 05:13:42;;;;;;;3.57;1.37;;;9.40;99.90;;;;;;5036157;28;20225;-83
2023/10/09 05:16:18;;;;;;;4.20;1.60;;;9.40;99.90;;;;;;5046139;28;20245;-82
2023/10/09 05:18:55;;;;;;;2.70;1.63;;;9.40;99.90;;;;;;5055736;28;20245;-82
2023/10/09 05:21:44;;;;;;;3.00;1.47;;;9.30;99.90;;;;;;5032885;28;20931;-81
2023/10/09 05:24:18;;;;;;;2.67;1.47;;;9.30;99.90;;;;;;5045966;28;20595;-80
2023/10/09 05:26:51;;;;;;;2.83;1.60;;;9.30;99.90;;;;;;5042692;28;20227;-81
2023/10/09 05:29:34;;;;;;;3.90;1.80;;;9.30;99.90;;;;;;5048704;28;20231;-82
2023/10/09 05:32:04;;;;;;;3.63;1.60;;;9.30;99.90;;;;;;5056591;28;20314;-81
2023/10/09 05:34:34;;;;;;;4.33;1.70;;;9.30;99.90;;;;;;5044313;28;20221;-81
2023/10/09 05:37:16;;;;;;;3.60;1.60;;;9.30;99.90;;;;;;5048139;28;20251;-79
2023/10/09 05:39:57;;;;;;;2.87;1.30;;;9.30;99.90;;;;;;5037473;28;20224;-83
2023/10/09 05:42:28;;;;;;;3.87;2.07;;;9.20;99.90;;;;;;5040281;28;20236;-81
2023/10/09 05:46:01;;;;;;;2.30;1.37;;;9.20;99.90;;;;;;5038052;28;20223;-82
2023/10/09 05:47:53;;;;;;;2.90;1.70;;;9.20;99.90;;;;;;5038102;28;20505;-82
2023/10/09 05:50:34;;;;;;;4.63;1.97;;;9.20;99.90;;;;;;5039819;28;20297;-82
2023/10/09 05:53:06;;;;;;;2.10;1.40;;;9.20;99.90;;;;;;5029067;28;20216;-82
2023/10/09 06:04:15;;;;;;;4.77;1.67;;;9.20;99.90;;;;;;5015593;28;20306;-83
2023/10/09 06:06:45;;;;;;;4.27;1.60;;;9.20;99.90;;;;;;5026358;28;20273;-85
2023/10/09 06:15:18;;;;;;;5.33;1.80;;;9.10;99.90;;;;;;5039152;28;20220;-83
2023/10/09 06:17:50;;;;;;;4.73;2.03;;;9.10;99.90;;;;;;5023793;28;20236;-82
2023/10/09 06:21:06;;;;;;;3.87;1.97;;;9.00;99.90;;;;;;5026924;28;20390;-82
2023/10/09 06:23:57;;;;;;;3.60;1.80;;;9.00;99.90;;;;;;5031547;28;20255;-83
2023/10/09 06:26:24;;;;;;;3.57;1.97;;;8.90;99.90;;;;;;5022563;28;20754;-82
2023/10/09 06:29:13;;;;;;;7.00;2.27;;;8.90;99.90;;;;;;5023648;28;20247;-83
2023/10/09 06:34:22;;;;;;;3.67;2.00;;;8.80;99.90;;;;;;5019239;28;20224;-82
2023/10/09 06:36:52;;;;;;;5.27;2.27;;;8.80;99.90;;;;;;5022213;28;20264;-83
2023/10/09 06:42:09;;;;;;;4.63;2.17;;;8.70;99.90;;;;;;4981989;28;20997;-82
2023/10/09 06:47:18;;;;;;;5.10;2.13;;;8.70;99.90;;;;;;4998644;28;20273;-83
2023/10/09 06:50:12;;;;;;;4.77;2.37;;;8.70;99.90;;;;;;5004768;28;20236;-83
2023/10/09 06:55:19;;;;;;;4.20;2.47;;;8.70;99.90;;;;;;5020138;28;20219;-84
2023/10/09 06:57:48;;;;;;;4.03;2.60;;;8.70;99.90;;;;;;5009987;28;20233;-83
2023/10/09 07:03:11;;;;;;;5.23;2.67;;;8.70;99.90;;;;;;5028612;28;20737;-81
2023/10/09 07:06:00;;;;;;;6.87;2.87;;;8.70;99.90;;;;;;5018351;28;20647;-80
2023/10/09 07:08:31;;;;;;;6.90;2.63;;;8.70;99.90;;;;;;5031457;28;20313;-82
2023/10/09 07:11:21;;;;;;;7.63;2.87;;;8.70;99.90;;;;;;5010889;28;20275;-82
2023/10/09 07:13:53;;;;;;;6.07;2.30;;;8.70;99.90;;;;;;4999461;28;20226;-81
2023/10/09 07:16:28;;;;;;;27.23;3.90;;;8.80;99.90;;;;;;5005201;28;20213;-80
2023/10/09 07:19:09;;;;;;;5.60;2.30;;;8.70;99.90;;;;;;5037174;28;20309;-82
2023/10/09 07:21:44;;;;;;;8.03;2.63;;;8.70;99.90;;;;;;5009601;28;20603;-80
2023/10/09 07:24:21;;;;;;;7.27;2.73;;;8.80;99.90;;;;;;5008443;28;20393;-80
2023/10/09 07:26:53;;;;;;;8.23;3.23;;;8.80;99.90;;;;;;5014093;28;20664;-80
2023/10/09 07:29:22;;;;;;;9.30;3.23;;;8.80;99.90;;;;;;5007922;28;20224;-83
2023/10/09 07:31:58;;;;;;;10.53;3.00;;;8.80;99.90;;;;;;4992492;28;20231;-81
2023/10/09 07:34:30;;;;;;;5.03;3.07;;;8.80;99.90;;;;;;4990271;28;20295;-83
2023/10/09 07:37:03;;;;;;;4.53;2.93;;;8.80;99.90;;;;;;4986198;28;20296;-82
2023/10/09 07:39:34;;;;;;;5.33;3.07;;;8.80;99.90;;;;;;4997147;28;20229;-81
2023/10/09 07:42:15;;;;;;;7.17;3.33;;;8.80;99.90;;;;;;5018895;28;20235;-81
2023/10/09 07:44:52;;;;;;;8.27;3.07;;;8.80;99.90;;;;;;5025714;28;20230;-81
2023/10/09 07:47:22;;;;;;;8.93;3.70;;;8.80;99.90;;;;;;5005910;28;20654;-80
2023/10/09 07:49:53;;;;;;;10.70;3.70;;;8.90;99.90;;;;;;4989573;28;20233;-79
2023/10/09 07:52:26;;;;;;;10.17;3.50;;;8.90;99.90;;;;;;4997105;28;20228;-80
2023/10/09 07:55:01;;;;;;;5.63;3.27;;;9.00;99.90;;;;;;5035687;28;20235;-81
2023/10/09 07:57:38;;;;;;;5.47;2.90;;;9.00;99.90;;;;;;5003386;28;20293;-81
2023/10/09 08:00:12;;;;;;;6.97;3.30;;;9.10;99.90;;;;;;5010693;28;20245;-80
2023/10/09 08:02:39;;;;;;;5.97;3.23;;;9.10;99.90;;;;;;5023284;28;20231;-82
2023/10/09 08:05:18;;;;;;;3.50;3.07;;;9.10;99.90;;;;;;5024093;28;20316;-82
2023/10/09 08:07:57;;;;;;;6.87;3.37;;;9.20;99.90;;;;;;5026875;28;20232;-79
2023/10/09 08:16:04;;;;;;;7.07;3.87;;;9.30;99.90;;;;;;5109410;27;21153;-80
2023/10/09 08:18:31;;;;;;;4.60;3.20;;;9.30;99.90;;;;;;5092155;27;20229;-80
2023/10/09 08:23:52;;;;;;;5.00;3.13;;;9.30;99.90;;;;;;5081872;28;20222;-80
2023/10/09 08:26:29;;;;;;;5.90;3.10;;;9.30;99.90;;;;;;5084123;27;20217;-80
2023/10/09 08:29:15;;;;;;;4.77;3.37;;;9.30;99.90;;;;;;5084348;28;20233;-80
2023/10/09 08:31:47;;;;;;;5.03;3.13;;;9.30;99.90;;;;;;5080623;28;20486;-80
2023/10/09 08:34:25;;;;;;;4.87;3.30;;;9.30;99.90;;;;;;5078714;27;20252;-81
2023/10/09 08:36:53;;;;;;;14.70;4.10;;;9.40;99.90;;;;;;5077605;28;20283;-80
2023/10/09 08:39:26;;;;;;;4.87;3.13;;;9.30;99.90;;;;;;5076231;28;20233;-81
2023/10/09 08:41:53;;;;;;;3.97;3.10;;;9.30;99.90;;;;;;5070945;28;20226;-80
2023/10/09 08:44:24;;;;;;;4.40;3.70;;;9.40;99.90;;;;;;5083568;28;20646;-80
2023/10/09 08:46:54;;;;;;;4.23;3.27;;;9.40;99.90;;;;;;5084605;28;20467;-80
2023/10/09 08:49:24;;;;;;;5.10;3.10;;;9.40;99.90;;;;;;5091958;27;20316;-80
2023/10/09 08:51:52;;;;;;;4.17;3.60;;;9.40;99.90;;;;;;5096448;28;20478;-80
2023/10/09 08:54:22;;;;;;;4.13;3.17;;;9.40;99.90;;;;;;5091549;27;20772;-81
2023/10/09 08:56:51;;;;;;;4.10;3.27;;;9.40;99.90;;;;;;5096005;27;20224;-80
2023/10/09 08:59:19;;;;;;;3.87;3.10;;;9.50;99.90;;;;;;5099389;28;20246;-81
2023/10/09 09:01:49;;;;;;;4.83;3.60;;;9.50;99.90;;;;;;5099331;28;20243;-81
2023/10/09 09:04:39;;;;;;;4.43;3.57;;;9.50;99.90;;;;;;5088526;28;20214;-81
2023/10/09 09:07:06;;;;;;;4.97;3.50;;;9.50;99.90;;;;;;5107323;28;20581;-80
2023/10/09 09:09:34;;;;;;;4.73;3.23;;;9.50;99.90;;;;;;5100085;28;20250;-81
2023/10/09 09:12:00;;;;;;;4.20;3.40;;;9.60;99.90;;;;;;5100576;28;21262;-80
2023/10/09 09:14:37;;;;;;;4.80;3.40;;;9.60;99.90;;;;;;5096314;28;20232;-80
2023/10/09 09:17:05;;;;;;;3.47;3.10;;;9.60;99.90;;;;;;5092829;28;20281;-82
2023/10/09 09:19:33;;;;;;;3.70;3.33;;;9.70;99.90;;;;;;5096985;28;20805;-81
2023/10/09 09:22:11;;;;;;;5.23;3.70;;;9.80;99.90;;;;;;5098850;28;20221;-80
2023/10/09 09:24:41;;;;;;;3.47;3.17;;;9.80;99.90;;;;;;5090809;28;20996;-80
2023/10/09 09:27:12;;;;;;;7.13;3.50;;;9.90;99.90;;;;;;5079872;28;20338;-81
2023/10/09 09:29:41;;;;;;;20.77;3.67;;;9.90;99.90;;;;;;5084535;28;20870;-79
2023/10/09 09:32:16;;;;;;;5.57;3.30;;;9.90;99.90;;;;;;5082626;28;20219;-82
2023/10/09 09:34:46;;;;;;;8.80;3.23;;;10.00;99.90;;;;;;5082854;28;20217;-80
2023/10/09 09:37:20;;;;;;;4.20;3.00;;;10.00;99.90;;;;;;5085504;28;20218;-81
2023/10/09 09:39:51;;;;;;;4.93;2.87;;;10.00;99.90;;;;;;5086701;28;20241;-81
2023/10/09 09:42:24;;;;;;;5.60;2.60;;;10.10;99.90;;;;;;5084109;28;20230;-81
2023/10/09 09:44:52;;;;;;;3.57;3.03;;;10.10;99.90;;;;;;5081172;28;20234;-80
2023/10/09 09:47:26;;;;;;;3.40;2.50;;;10.10;99.90;;;;;;5083305;28;20862;-80
2023/10/09 09:49:59;;;;;;;3.03;2.73;;;10.20;99.90;;;;;;5088544;28;20256;-80
2023/10/09 09:52:37;;;;;;;3.13;2.80;;;10.20;99.90;;;;;;5085743;28;20222;-79
2023/10/09 09:55:07;;;;;;;3.40;2.90;;;10.20;99.90;;;;;;5083291;28;20226;-79
2023/10/09 09:57:39;;;;;;;2.87;2.57;;;10.30;99.90;;;;;;5088391;28;20310;-79
2023/10/09 10:00:27;;;;;;;2.93;2.60;;;10.30;99.90;;;;;;5088236;28;20324;-79
2023/10/09 10:02:57;;;;;;;3.17;2.87;;;10.40;99.90;;;;;;5078993;28;20933;-79
2023/10/09 10:05:29;;;;;;;3.30;2.40;;;10.40;99.90;;;;;;5078946;28;20749;-79
2023/10/09 10:08:01;;;;;;;2.83;2.57;;;10.50;99.90;;;;;;5087026;28;20303;-79
2023/10/09 10:10:49;;;;;;;3.60;2.80;;;10.50;99.90;;;;;;5085623;28;20226;-80
2023/10/09 10:13:23;;;;;;;3.67;2.93;;;10.60;99.90;;;;;;5086550;28;20627;-78
2023/10/09 10:16:08;;;;;;;2.57;2.37;;;10.60;99.90;;;;;;5086799;28;20226;-79
2023/10/09 10:18:54;;;;;;;3.10;2.60;;;10.60;99.90;;;;;;5079770;28;20231;-78
2023/10/09 10:21:33;;;;;;;2.50;2.30;;;10.70;99.90;;;;;;5061162;28;20228;-80
2023/10/09 10:24:05;;;;;;;2.90;2.43;;;10.70;99.90;;;;;;5059792;28;20242;-80
2023/10/09 10:26:34;;;;;;;3.37;2.60;;;10.70;99.90;;;;;;5046858;28;20312;-79
2023/10/09 10:29:23;;;;;;;2.47;2.27;;;10.70;99.90;;;;;;5059039;28;20227;-79
2023/10/09 10:32:00;;;;;;;3.13;2.70;;;10.70;99.90;;;;;;5080617;28;20227;-78
2023/10/09 10:34:26;;;;;;;3.97;2.67;;;10.80;99.90;;;;;;5082873;28;20254;-79
2023/10/09 10:36:59;;;;;;;2.80;2.50;;;10.80;99.90;;;;;;5083397;28;20222;-79
2023/10/09 10:39:43;;;;;;;2.60;2.40;;;10.90;99.90;;;;;;5086792;28;20264;-79
2023/10/09 10:42:33;;;;;;;2.37;1.90;;;10.90;99.90;;;;;;5088811;28;20219;-80
2023/10/09 10:44:57;;;;;;;1.90;1.80;;;11.00;99.90;;;;;;5087817;28;20228;-80
2023/10/09 10:47:33;;;;;;;2.23;1.90;;;11.00;99.90;;;;;;5072893;28;20772;-80
2023/10/09 10:50:34;;;;;;;6.90;2.53;;;11.00;99.90;;;;;;5073305;28;20227;-81
2023/10/09 10:52:57;;;;;;;2.20;2.00;;;11.00;99.90;;;;;;5082091;28;20270;-80
2023/10/09 10:55:48;;;;;;;2.00;1.80;;;11.00;99.90;;;;;;5065037;28;20242;-80
2023/10/09 10:58:25;;;;;;;2.30;1.77;;;11.10;99.90;;;;;;5101493;28;20308;-83
2023/10/09 11:01:11;;;;;;;1.80;1.50;;;11.00;99.90;;;;;;5095461;28;20219;-87
2023/10/09 11:03:54;;;;;;;2.50;2.00;;;11.10;99.90;;;;;;5078021;28;20216;-86
2023/10/09 11:06:35;;;;;;;1.80;1.60;;;11.00;99.90;;;;;;5071752;28;20216;-84
2023/10/09 11:09:10;;;;;;;2.13;1.93;;;11.00;99.90;;;;;;5070243;28;20220;-82
2023/10/09 11:11:42;;;;;;;2.10;1.80;;;11.00;99.90;;;;;;5071983;28;20225;-81
2023/10/09 11:14:14;;;;;;;1.80;1.60;;;11.00;99.90;;;;;;5070297;28;20439;-80
2023/10/09 11:16:47;;;;;;;1.63;1.53;;;11.00;99.90;;;;;;5085537;28;20227;-80
2023/10/09 11:19:32;;;;;;;1.50;1.40;;;11.00;99.90;;;;;;5091381;28;20829;-83
2023/10/09 11:25:11;;;;;;;2.30;1.67;;;11.00;99.90;;;;;;5090733;27;20565;-82
2023/10/09 11:27:39;;;;;;;1.87;1.40;;;11.00;99.90;;;;;;5090024;28;20757;-82
2023/10/09 11:30:21;;;;;;;1.47;1.20;;;11.10;99.90;;;;;;5089579;28;20227;-82
2023/10/09 11:32:49;;;;;;;1.63;1.03;;;11.10;99.90;;;;;;5091443;28;20215;-82
2023/10/09 11:35:21;;;;;;;1.30;1.20;;;11.10;99.90;;;;;;5081817;28;20345;-83
2023/10/09 11:37:55;;;;;;;1.30;1.20;;;11.10;99.90;;;;;;5083696;28;20257;-83
2023/10/09 11:40:47;;;;;;;1.00;1.00;;;11.10;99.90;;;;;;5081479;28;20292;-83
2023/10/09 11:43:13;;;;;;;1.43;1.23;;;11.20;99.90;;;;;;5085878;28;20266;-83
2023/10/09 11:45:53;;;;;;;1.77;1.17;;;11.20;99.90;;;;;;5091884;28;20299;-83
2023/10/09 11:48:28;;;;;;;1.30;1.20;;;11.20;99.90;;;;;;5090823;28;20226;-82
2023/10/09 11:51:18;;;;;;;1.23;1.13;;;11.30;99.90;;;;;;5090433;28;20284;-81
2023/10/09 11:53:45;;;;;;;0.90;0.90;;;11.30;99.90;;;;;;5078497;28;20230;-82
2023/10/09 11:56:16;;;;;;;0.97;0.80;;;11.40;99.90;;;;;;5078447;28;20229;-82
2023/10/09 11:58:43;;;;;;;1.77;1.10;;;11.40;99.90;;;;;;5087806;28;20248;-81
2023/10/09 12:01:17;;;;;;;1.00;0.90;;;11.40;99.90;;;;;;5089312;28;20229;-81
2023/10/09 12:03:49;;;;;;;1.27;1.07;;;11.50;99.90;;;;;;5090011;28;20661;-82
2023/10/09 12:06:18;;;;;;;1.03;0.93;;;11.50;99.90;;;;;;5094951;28;20269;-82
2023/10/09 12:08:47;;;;;;;2.10;1.30;;;11.50;99.90;;;;;;5080133;28;20258;-81
2023/10/09 12:11:22;;;;;;;0.70;0.70;;;11.60;99.90;;;;;;5094179;28;20308;-81
2023/10/09 12:13:49;;;;;;;1.30;1.00;;;11.60;99.90;;;;;;5089249;28;20673;-82
2023/10/09 12:16:16;;;;;;;1.17;1.00;;;11.70;99.90;;;;;;5086758;28;20237;-82
2023/10/09 12:18:49;;;;;;;1.50;0.87;;;11.80;99.90;;;;;;5088346;28;20237;-81
2023/10/09 12:21:16;;;;;;;0.97;0.87;;;11.80;99.90;;;;;;5087924;28;20287;-82
2023/10/09 12:23:47;;;;;;;0.87;0.87;;;11.90;99.90;;;;;;5087695;28;20230;-81
2023/10/09 12:26:15;;;;;;;1.00;0.90;;;11.90;99.90;;;;;;5086420;28;20894;-82
2023/10/09 12:28:45;;;;;;;0.67;0.67;;;12.00;99.90;;;;;;5088364;28;20223;-82
2023/10/09 12:31:19;;;;;;;1.07;0.83;;;12.00;99.90;;;;;;5076753;28;20230;-81
2023/10/09 12:33:50;;;;;;;1.00;0.90;;;12.00;99.90;;;;;;5083811;28;20229;-82
2023/10/09 12:36:19;;;;;;;0.80;0.73;;;12.00;99.90;;;;;;5071393;28;20232;-81
2023/10/09 12:38:50;;;;;;;2.00;0.83;;;12.00;99.90;;;;;;5068119;28;20318;-81
2023/10/09 12:41:20;;;;;;;1.07;0.83;;;12.00;99.90;;;;;;5073616;28;20226;-81
2023/10/09 12:43:46;;;;;;;0.93;0.83;;;12.10;99.90;;;;;;5071590;28;20233;-81
2023/10/09 12:46:16;;;;;;;0.87;0.87;;;12.10;99.90;;;;;;5070124;28;20227;-82
2023/10/09 12:48:46;;;;;;;3.60;1.00;;;12.10;99.90;;;;;;5065375;28;20251;-81
2023/10/09 12:51:16;;;;;;;0.87;0.87;;;12.10;99.90;;;;;;5064908;28;20235;-82
2023/10/09 12:53:42;;;;;;;0.93;0.90;;;12.20;99.90;;;;;;5072460;28;20228;-82
2023/10/09 12:56:11;;;;;;;3.70;2.60;;;12.20;99.90;;;;;;5072943;28;20322;-82
2023/10/09 12:58:40;;;;;;;1.03;1.00;;;12.20;99.90;;;;;;5071779;28;20249;-81
2023/10/09 13:01:11;;;;;;;2.30;0.93;;;12.20;99.90;;;;;;5073347;28;20237;-81
2023/10/09 13:03:38;;;;;;;1.97;1.73;;;12.30;99.90;;;;;;5073883;28;20224;-81
2023/10/09 13:06:10;;;;;;;0.90;0.90;;;12.30;99.90;;;;;;5063676;28;20222;-82
2023/10/09 13:08:40;;;;;;;2.00;1.00;;;12.30;99.90;;;;;;5072026;28;20226;-81
2023/10/09 13:11:10;;;;;;;1.20;1.10;;;12.30;99.90;;;;;;5072663;28;20234;-81
2023/10/09 13:13:42;;;;;;;1.10;1.00;;;12.40;99.90;;;;;;5074247;28;20229;-82
2023/10/09 13:16:22;;;;;;;1.40;0.97;;;12.40;99.90;;;;;;5072135;28;20235;-81
2023/10/09 13:18:50;;;;;;;1.40;1.30;;;12.40;99.90;;;;;;5077707;28;20230;-81
2023/10/09 13:21:18;;;;;;;1.10;1.00;;;12.50;99.90;;;;;;5074320;28;20406;-82
2023/10/09 13:23:47;;;;;;;1.77;1.10;;;12.50;99.90;;;;;;5071084;28;20242;-81
2023/10/09 13:26:24;;;;;;;344.93;273.60;;;12.50;99.90;;;;;;5071330;28;20256;-82
2023/10/09 13:28:53;;;;;;;14.03;10.67;;;12.60;99.90;;;;;;5074077;28;20633;-81
2023/10/09 13:31:22;;;;;;;11.03;10.30;;;12.60;99.90;;;;;;5072740;28;20237;-81
2023/10/09 13:33:49;;;;;;;3.40;3.10;;;12.60;99.90;;;;;;5071632;28;20230;-82
2023/10/09 13:36:19;;;;;;;6.23;4.83;;;12.70;99.90;;;;;;5062698;28;20732;-82
2023/10/09 13:38:46;;;;;;;1.57;1.47;;;12.70;99.90;;;;;;5071661;28;20226;-81
2023/10/09 13:41:14;;;;;;;2.23;2.03;;;12.80;99.90;;;;;;5061590;28;20330;-81
2023/10/09 13:43:51;;;;;;;2.27;2.07;;;12.80;99.90;;;;;;5071809;28;20243;-82
2023/10/09 13:46:19;;;;;;;4.93;4.63;;;12.80;99.90;;;;;;5064005;28;20228;-82
2023/10/09 13:48:49;;;;;;;3.47;2.43;;;12.90;99.90;;;;;;5073621;28;20322;-82
2023/10/09 13:51:18;;;;;;;5.00;4.60;;;12.90;99.90;;;;;;5067150;28;20228;-83
2023/10/09 13:53:47;;;;;;;2.90;2.70;;;12.90;99.90;;;;;;5073370;28;20247;-82
2023/10/09 13:56:19;;;;;;;6.47;6.07;;;13.00;99.90;;;;;;5064120;28;20230;-82
2023/10/09 13:58:47;;;;;;;2.90;1.60;;;13.00;99.90;;;;;;5072707;28;20280;-82
2023/10/09 14:01:27;;;;;;;1.93;1.83;;;13.00;99.90;;;;;;5070905;28;20328;-82
2023/10/09 14:03:57;;;;;;;2.10;1.73;;;13.00;99.90;;;;;;5074601;28;20234;-82
2023/10/09 14:06:31;;;;;;;2.20;1.50;;;13.00;99.90;;;;;;5072496;28;20615;-82
2023/10/09 14:09:04;;;;;;;2.43;1.40;;;13.00;99.90;;;;;;5074120;28;20321;-81
2023/10/09 14:11:31;;;;;;;2.87;1.63;;;13.10;99.90;;;;;;5073701;28;20226;-82
2023/10/09 14:14:00;;;;;;;1.87;1.27;;;13.10;99.90;;;;;;5072445;28;20225;-82
2023/10/09 14:16:28;;;;;;;3.47;3.27;;;13.10;99.90;;;;;;5071827;28;20619;-82
2023/10/09 14:19:00;;;;;;;2.33;2.13;;;13.10;99.90;;;;;;5074691;28;20668;-82